sensor_id;sensor_type;location;lat;lon;timestamp;P1;durP1;ratioP1;P2;durP2;ratioP2
76296;SDS011;65104;52.994;6.552;2023-03-14T00:00:36;8.73;;;2.95;;
76296;SDS011;65104;52.994;6.552;2023-03-14T00:03:10;13.57;;;2.92;;
76296;SDS011;65104;52.994;6.552;2023-03-14T00:06:07;14.60;;;2.40;;
76296;SDS011;65104;52.994;6.552;2023-03-14T00:08:39;10.75;;;2.50;;
76296;SDS011;65104;52.994;6.552;2023-03-14T00:11:10;20.35;;;4.07;;
76296;SDS011;65104;52.994;6.552;2023-03-14T00:13:46;10.93;;;3.08;;
76296;SDS011;65104;52.994;6.552;2023-03-14T00:16:16;14.38;;;2.70;;
76296;SDS011;65104;52.994;6.552;2023-03-14T00:18:47;14.68;;;2.97;;
76296;SDS011;65104;52.994;6.552;2023-03-14T00:21:21;10.50;;;3.05;;
76296;SDS011;65104;52.994;6.552;2023-03-14T00:23:56;12.60;;;2.97;;
76296;SDS011;65104;52.994;6.552;2023-03-14T00:26:25;13.20;;;2.88;;
76296;SDS011;65104;52.994;6.552;2023-03-14T00:28:58;13.32;;;2.75;;
76296;SDS011;65104;52.994;6.552;2023-03-14T00:31:29;13.55;;;2.25;;
76296;SDS011;65104;52.994;6.552;2023-03-14T00:33:59;17.02;;;2.72;;
76296;SDS011;65104;52.994;6.552;2023-03-14T00:36:36;12.23;;;2.35;;
76296;SDS011;65104;52.994;6.552;2023-03-14T00:39:07;10.15;;;3.60;;
76296;SDS011;65104;52.994;6.552;2023-03-14T00:41:35;12.82;;;2.78;;
76296;SDS011;65104;52.994;6.552;2023-03-14T00:44:08;11.73;;;3.50;;
76296;SDS011;65104;52.994;6.552;2023-03-14T00:46:37;10.95;;;3.40;;
76296;SDS011;65104;52.994;6.552;2023-03-14T00:49:07;16.98;;;4.35;;
76296;SDS011;65104;52.994;6.552;2023-03-14T00:51:36;13.13;;;3.70;;
76296;SDS011;65104;52.994;6.552;2023-03-14T00:54:05;9.35;;;2.80;;
76296;SDS011;65104;52.994;6.552;2023-03-14T00:59:02;8.93;;;2.72;;
76296;SDS011;65104;52.994;6.552;2023-03-14T01:01:31;9.73;;;2.70;;
76296;SDS011;65104;52.994;6.552;2023-03-14T01:03:57;11.43;;;2.17;;
76296;SDS011;65104;52.994;6.552;2023-03-14T01:06:27;10.52;;;2.55;;
76296;SDS011;65104;52.994;6.552;2023-03-14T01:08:58;9.30;;;3.05;;
76296;SDS011;65104;52.994;6.552;2023-03-14T01:11:30;12.27;;;2.35;;
76296;SDS011;65104;52.994;6.552;2023-03-14T01:14:04;16.92;;;3.08;;
76296;SDS011;65104;52.994;6.552;2023-03-14T01:16:35;13.40;;;2.63;;
76296;SDS011;65104;52.994;6.552;2023-03-14T01:19:05;11.15;;;3.40;;
76296;SDS011;65104;52.994;6.552;2023-03-14T01:21:34;7.35;;;3.00;;
76296;SDS011;65104;52.994;6.552;2023-03-14T01:24:05;11.75;;;3.03;;
76296;SDS011;65104;52.994;6.552;2023-03-14T01:26:36;8.27;;;2.40;;
76296;SDS011;65104;52.994;6.552;2023-03-14T01:29:05;11.82;;;2.55;;
76296;SDS011;65104;52.994;6.552;2023-03-14T01:31:33;9.40;;;2.58;;
76296;SDS011;65104;52.994;6.552;2023-03-14T01:34:05;9.32;;;2.47;;
76296;SDS011;65104;52.994;6.552;2023-03-14T01:36:37;7.75;;;2.55;;
76296;SDS011;65104;52.994;6.552;2023-03-14T01:39:05;8.13;;;2.17;;
76296;SDS011;65104;52.994;6.552;2023-03-14T01:41:35;11.98;;;2.88;;
76296;SDS011;65104;52.994;6.552;2023-03-14T01:44:04;5.38;;;2.00;;
76296;SDS011;65104;52.994;6.552;2023-03-14T01:46:43;7.35;;;2.67;;
76296;SDS011;65104;52.994;6.552;2023-03-14T01:49:19;8.63;;;1.90;;
76296;SDS011;65104;52.994;6.552;2023-03-14T01:52:02;7.93;;;2.22;;
76296;SDS011;65104;52.994;6.552;2023-03-14T01:54:35;9.60;;;2.50;;
76296;SDS011;65104;52.994;6.552;2023-03-14T01:57:08;9.80;;;2.45;;
76296;SDS011;65104;52.994;6.552;2023-03-14T01:59:40;8.63;;;2.55;;
76296;SDS011;65104;52.994;6.552;2023-03-14T02:02:13;7.05;;;2.13;;
76296;SDS011;65104;52.994;6.552;2023-03-14T02:04:44;5.68;;;1.80;;
76296;SDS011;65104;52.994;6.552;2023-03-14T02:09:55;13.80;;;1.90;;
76296;SDS011;65104;52.994;6.552;2023-03-14T02:12:25;5.97;;;1.90;;
76296;SDS011;65104;52.994;6.552;2023-03-14T02:14:54;11.13;;;2.85;;
76296;SDS011;65104;52.994;6.552;2023-03-14T02:22:45;5.57;;;2.10;;
76296;SDS011;65104;52.994;6.552;2023-03-14T02:25:20;11.68;;;2.65;;
76296;SDS011;65104;52.994;6.552;2023-03-14T02:27:57;8.00;;;1.95;;
76296;SDS011;65104;52.994;6.552;2023-03-14T02:30:26;8.23;;;2.22;;
76296;SDS011;65104;52.994;6.552;2023-03-14T02:32:59;8.48;;;2.17;;
76296;SDS011;65104;52.994;6.552;2023-03-14T02:35:33;7.18;;;1.80;;
76296;SDS011;65104;52.994;6.552;2023-03-14T02:38:10;2.85;;;2.25;;
76296;SDS011;65104;52.994;6.552;2023-03-14T02:41:07;6.00;;;1.40;;
76296;SDS011;65104;52.994;6.552;2023-03-14T02:43:35;9.80;;;3.10;;
76296;SDS011;65104;52.994;6.552;2023-03-14T02:46:04;6.35;;;1.20;;
76296;SDS011;65104;52.994;6.552;2023-03-14T02:48:36;5.38;;;1.23;;
76296;SDS011;65104;52.994;6.552;2023-03-14T02:53:57;7.35;;;1.55;;
76296;SDS011;65104;52.994;6.552;2023-03-14T02:56:26;5.82;;;2.03;;
76296;SDS011;65104;52.994;6.552;2023-03-14T02:58:56;7.40;;;1.50;;
76296;SDS011;65104;52.994;6.552;2023-03-14T03:01:25;6.80;;;2.67;;
76296;SDS011;65104;52.994;6.552;2023-03-14T03:03:53;7.35;;;2.40;;
76296;SDS011;65104;52.994;6.552;2023-03-14T03:06:22;8.15;;;2.47;;
76296;SDS011;65104;52.994;6.552;2023-03-14T03:08:52;8.90;;;2.63;;
76296;SDS011;65104;52.994;6.552;2023-03-14T03:11:21;9.02;;;3.13;;
76296;SDS011;65104;52.994;6.552;2023-03-14T03:13:51;9.10;;;2.88;;
76296;SDS011;65104;52.994;6.552;2023-03-14T03:16:23;13.65;;;3.65;;
76296;SDS011;65104;52.994;6.552;2023-03-14T03:18:54;7.15;;;3.00;;
76296;SDS011;65104;52.994;6.552;2023-03-14T03:21:22;7.63;;;3.08;;
76296;SDS011;65104;52.994;6.552;2023-03-14T03:23:52;13.93;;;3.65;;
76296;SDS011;65104;52.994;6.552;2023-03-14T03:26:20;8.50;;;3.13;;
76296;SDS011;65104;52.994;6.552;2023-03-14T03:28:50;7.80;;;3.28;;
76296;SDS011;65104;52.994;6.552;2023-03-14T03:31:19;10.13;;;3.90;;
76296;SDS011;65104;52.994;6.552;2023-03-14T03:33:49;9.63;;;3.13;;
76296;SDS011;65104;52.994;6.552;2023-03-14T03:36:23;11.38;;;3.40;;
76296;SDS011;65104;52.994;6.552;2023-03-14T03:38:52;11.23;;;3.97;;
76296;SDS011;65104;52.994;6.552;2023-03-14T03:41:22;10.45;;;3.47;;
76296;SDS011;65104;52.994;6.552;2023-03-14T03:43:54;7.55;;;2.40;;
76296;SDS011;65104;52.994;6.552;2023-03-14T03:46:24;9.35;;;3.33;;
76296;SDS011;65104;52.994;6.552;2023-03-14T03:48:55;7.43;;;2.53;;
76296;SDS011;65104;52.994;6.552;2023-03-14T03:51:27;7.90;;;3.22;;
76296;SDS011;65104;52.994;6.552;2023-03-14T03:53:57;9.30;;;3.60;;
76296;SDS011;65104;52.994;6.552;2023-03-14T03:56:26;8.40;;;3.47;;
76296;SDS011;65104;52.994;6.552;2023-03-14T03:58:55;7.93;;;3.90;;
76296;SDS011;65104;52.994;6.552;2023-03-14T04:01:23;15.15;;;3.80;;
76296;SDS011;65104;52.994;6.552;2023-03-14T04:03:53;8.40;;;4.15;;
76296;SDS011;65104;52.994;6.552;2023-03-14T04:06:22;7.43;;;3.55;;
76296;SDS011;65104;52.994;6.552;2023-03-14T04:08:53;10.93;;;3.88;;
76296;SDS011;65104;52.994;6.552;2023-03-14T04:11:25;10.50;;;3.70;;
76296;SDS011;65104;52.994;6.552;2023-03-14T04:13:55;11.75;;;3.95;;
76296;SDS011;65104;52.994;6.552;2023-03-14T04:16:24;9.73;;;4.18;;
76296;SDS011;65104;52.994;6.552;2023-03-14T04:18:55;8.32;;;3.42;;
76296;SDS011;65104;52.994;6.552;2023-03-14T04:21:28;9.23;;;3.92;;
76296;SDS011;65104;52.994;6.552;2023-03-14T04:23:56;12.82;;;4.55;;
76296;SDS011;65104;52.994;6.552;2023-03-14T04:26:24;12.10;;;4.13;;
76296;SDS011;65104;52.994;6.552;2023-03-14T04:28:52;12.07;;;4.68;;
76296;SDS011;65104;52.994;6.552;2023-03-14T04:31:23;7.03;;;3.50;;
76296;SDS011;65104;52.994;6.552;2023-03-14T04:33:49;8.98;;;4.13;;
76296;SDS011;65104;52.994;6.552;2023-03-14T04:36:20;10.02;;;3.92;;
76296;SDS011;65104;52.994;6.552;2023-03-14T04:38:49;10.10;;;3.10;;
76296;SDS011;65104;52.994;6.552;2023-03-14T04:41:17;6.50;;;3.08;;
76296;SDS011;65104;52.994;6.552;2023-03-14T04:43:45;10.57;;;3.72;;
76296;SDS011;65104;52.994;6.552;2023-03-14T04:46:14;7.07;;;3.15;;
76296;SDS011;65104;52.994;6.552;2023-03-14T04:48:44;6.25;;;3.00;;
76296;SDS011;65104;52.994;6.552;2023-03-14T04:51:14;11.15;;;3.47;;
76296;SDS011;65104;52.994;6.552;2023-03-14T04:53:44;12.50;;;3.65;;
76296;SDS011;65104;52.994;6.552;2023-03-14T04:56:13;9.27;;;3.28;;
76296;SDS011;65104;52.994;6.552;2023-03-14T04:58:41;7.45;;;3.58;;
76296;SDS011;65104;52.994;6.552;2023-03-14T05:01:10;12.95;;;3.60;;
76296;SDS011;65104;52.994;6.552;2023-03-14T05:03:39;5.82;;;3.40;;
76296;SDS011;65104;52.994;6.552;2023-03-14T05:06:09;11.07;;;3.97;;
76296;SDS011;65104;52.994;6.552;2023-03-14T05:08:40;5.45;;;3.05;;
76296;SDS011;65104;52.994;6.552;2023-03-14T05:11:09;10.15;;;3.67;;
76296;SDS011;65104;52.994;6.552;2023-03-14T05:13:38;9.68;;;3.28;;
76296;SDS011;65104;52.994;6.552;2023-03-14T05:16:09;8.43;;;3.75;;
76296;SDS011;65104;52.994;6.552;2023-03-14T05:18:39;9.18;;;3.58;;
76296;SDS011;65104;52.994;6.552;2023-03-14T05:21:07;8.07;;;3.78;;
76296;SDS011;65104;52.994;6.552;2023-03-14T05:23:35;9.25;;;3.42;;
76296;SDS011;65104;52.994;6.552;2023-03-14T05:26:08;8.35;;;3.67;;
76296;SDS011;65104;52.994;6.552;2023-03-14T05:28:38;5.93;;;3.13;;
76296;SDS011;65104;52.994;6.552;2023-03-14T05:31:06;13.95;;;3.47;;
76296;SDS011;65104;52.994;6.552;2023-03-14T05:33:36;11.13;;;4.20;;
76296;SDS011;65104;52.994;6.552;2023-03-14T05:36:02;9.13;;;4.00;;
76296;SDS011;65104;52.994;6.552;2023-03-14T05:38:30;13.68;;;4.38;;
76296;SDS011;65104;52.994;6.552;2023-03-14T05:40:58;10.50;;;4.60;;
76296;SDS011;65104;52.994;6.552;2023-03-14T05:43:24;11.82;;;4.30;;
76296;SDS011;65104;52.994;6.552;2023-03-14T05:45:54;10.93;;;4.28;;
76296;SDS011;65104;52.994;6.552;2023-03-14T05:48:20;11.10;;;4.03;;
76296;SDS011;65104;52.994;6.552;2023-03-14T05:50:56;12.70;;;5.05;;
76296;SDS011;65104;52.994;6.552;2023-03-14T05:53:24;10.10;;;4.70;;
76296;SDS011;65104;52.994;6.552;2023-03-14T05:55:57;8.00;;;3.97;;
76296;SDS011;65104;52.994;6.552;2023-03-14T05:58:26;12.40;;;4.20;;
76296;SDS011;65104;52.994;6.552;2023-03-14T06:00:56;9.35;;;4.82;;
76296;SDS011;65104;52.994;6.552;2023-03-14T06:03:24;10.55;;;4.72;;
76296;SDS011;65104;52.994;6.552;2023-03-14T06:05:53;10.30;;;4.18;;
76296;SDS011;65104;52.994;6.552;2023-03-14T06:08:21;11.88;;;4.15;;
76296;SDS011;65104;52.994;6.552;2023-03-14T06:10:49;8.32;;;4.07;;
76296;SDS011;65104;52.994;6.552;2023-03-14T06:13:20;7.82;;;3.90;;
76296;SDS011;65104;52.994;6.552;2023-03-14T06:15:52;6.97;;;3.97;;
76296;SDS011;65104;52.994;6.552;2023-03-14T06:18:25;9.05;;;3.72;;
76296;SDS011;65104;52.994;6.552;2023-03-14T06:20:57;10.15;;;3.63;;
76296;SDS011;65104;52.994;6.552;2023-03-14T06:23:24;8.48;;;3.63;;
76296;SDS011;65104;52.994;6.552;2023-03-14T06:25:57;8.35;;;3.53;;
76296;SDS011;65104;52.994;6.552;2023-03-14T06:28:27;9.50;;;3.78;;
76296;SDS011;65104;52.994;6.552;2023-03-14T06:31:00;8.07;;;4.15;;
76296;SDS011;65104;52.994;6.552;2023-03-14T06:33:28;7.28;;;4.32;;
76296;SDS011;65104;52.994;6.552;2023-03-14T06:35:58;10.02;;;4.15;;
76296;SDS011;65104;52.994;6.552;2023-03-14T06:38:26;8.13;;;4.43;;
76296;SDS011;65104;52.994;6.552;2023-03-14T06:41:02;10.10;;;4.18;;
76296;SDS011;65104;52.994;6.552;2023-03-14T06:43:36;7.13;;;3.90;;
76296;SDS011;65104;52.994;6.552;2023-03-14T06:46:08;9.98;;;3.92;;
76296;SDS011;65104;52.994;6.552;2023-03-14T06:48:37;7.68;;;3.85;;
76296;SDS011;65104;52.994;6.552;2023-03-14T06:51:07;6.15;;;3.22;;
76296;SDS011;65104;52.994;6.552;2023-03-14T06:53:36;8.88;;;3.50;;
76296;SDS011;65104;52.994;6.552;2023-03-14T06:56:06;5.10;;;2.55;;
76296;SDS011;65104;52.994;6.552;2023-03-14T06:58:35;5.45;;;2.65;;
76296;SDS011;65104;52.994;6.552;2023-03-14T07:01:29;8.10;;;3.55;;
76296;SDS011;65104;52.994;6.552;2023-03-14T07:04:01;3.85;;;1.88;;
76296;SDS011;65104;52.994;6.552;2023-03-14T07:06:30;1.95;;;0.88;;
76296;SDS011;65104;52.994;6.552;2023-03-14T07:08:57;3.92;;;0.60;;
76296;SDS011;65104;52.994;6.552;2023-03-14T07:11:28;2.45;;;0.50;;
76296;SDS011;65104;52.994;6.552;2023-03-14T07:13:58;2.70;;;0.57;;
76296;SDS011;65104;52.994;6.552;2023-03-14T07:16:30;3.40;;;0.70;;
76296;SDS011;65104;52.994;6.552;2023-03-14T07:22:54;5.93;;;1.23;;
76296;SDS011;65104;52.994;6.552;2023-03-14T07:25:19;6.45;;;0.95;;
76296;SDS011;65104;52.994;6.552;2023-03-14T07:45:29;1.08;;;0.45;;
76296;SDS011;65104;52.994;6.552;2023-03-14T07:47:54;1.83;;;1.02;;
76296;SDS011;65104;52.994;6.552;2023-03-14T07:50:26;1.83;;;0.30;;
76296;SDS011;65104;52.994;6.552;2023-03-14T07:52:51;1.00;;;0.52;;
76296;SDS011;65104;52.994;6.552;2023-03-14T07:55:17;2.65;;;0.50;;
76296;SDS011;65104;52.994;6.552;2023-03-14T07:57:42;1.02;;;0.32;;
76296;SDS011;65104;52.994;6.552;2023-03-14T08:00:08;2.67;;;0.90;;
76296;SDS011;65104;52.994;6.552;2023-03-14T08:02:34;1.67;;;0.68;;
76296;SDS011;65104;52.994;6.552;2023-03-14T08:05:01;4.07;;;0.40;;
76296;SDS011;65104;52.994;6.552;2023-03-14T08:07:26;0.20;;;0.20;;
76296;SDS011;65104;52.994;6.552;2023-03-14T08:09:52;1.50;;;0.50;;
76296;SDS011;65104;52.994;6.552;2023-03-14T08:12:17;2.28;;;0.50;;
76296;SDS011;65104;52.994;6.552;2023-03-14T08:14:42;1.90;;;0.45;;
76296;SDS011;65104;52.994;6.552;2023-03-14T08:17:08;1.13;;;0.77;;
76296;SDS011;65104;52.994;6.552;2023-03-14T08:19:34;1.80;;;0.50;;
76296;SDS011;65104;52.994;6.552;2023-03-14T08:21:59;0.75;;;0.70;;
76296;SDS011;65104;52.994;6.552;2023-03-14T08:24:25;0.50;;;0.30;;
76296;SDS011;65104;52.994;6.552;2023-03-14T08:26:50;1.08;;;0.68;;
76296;SDS011;65104;52.994;6.552;2023-03-14T08:29:15;1.00;;;0.40;;
76296;SDS011;65104;52.994;6.552;2023-03-14T08:31:41;1.52;;;0.70;;
76296;SDS011;65104;52.994;6.552;2023-03-14T08:34:06;1.65;;;0.50;;
76296;SDS011;65104;52.994;6.552;2023-03-14T08:36:32;1.35;;;0.22;;
76296;SDS011;65104;52.994;6.552;2023-03-14T08:38:57;2.28;;;0.40;;
76296;SDS011;65104;52.994;6.552;2023-03-14T08:41:22;2.65;;;0.60;;
76296;SDS011;65104;52.994;6.552;2023-03-14T08:43:48;2.55;;;0.70;;
76296;SDS011;65104;52.994;6.552;2023-03-14T08:46:13;3.15;;;1.15;;
76296;SDS011;65104;52.994;6.552;2023-03-14T08:48:39;0.65;;;0.40;;
76296;SDS011;65104;52.994;6.552;2023-03-14T08:51:08;2.45;;;0.88;;
76296;SDS011;65104;52.994;6.552;2023-03-14T08:53:39;6.45;;;1.13;;
76296;SDS011;65104;52.994;6.552;2023-03-14T08:56:05;5.53;;;1.10;;
76296;SDS011;65104;52.994;6.552;2023-03-14T08:58:31;8.82;;;0.77;;
76296;SDS011;65104;52.994;6.552;2023-03-14T09:00:57;2.45;;;0.60;;
76296;SDS011;65104;52.994;6.552;2023-03-14T09:03:23;2.67;;;0.75;;
76296;SDS011;65104;52.994;6.552;2023-03-14T09:05:49;3.22;;;0.63;;
76296;SDS011;65104;52.994;6.552;2023-03-14T09:08:15;5.47;;;1.52;;
76296;SDS011;65104;52.994;6.552;2023-03-14T09:10:41;6.47;;;0.90;;
76296;SDS011;65104;52.994;6.552;2023-03-14T09:13:06;9.23;;;1.60;;
76296;SDS011;65104;52.994;6.552;2023-03-14T09:15:32;4.95;;;1.02;;
76296;SDS011;65104;52.994;6.552;2023-03-14T09:17:57;8.13;;;1.55;;
76296;SDS011;65104;52.994;6.552;2023-03-14T09:20:23;5.68;;;1.50;;
76296;SDS011;65104;52.994;6.552;2023-03-14T09:22:49;6.55;;;1.50;;
76296;SDS011;65104;52.994;6.552;2023-03-14T09:25:14;13.07;;;2.35;;
76296;SDS011;65104;52.994;6.552;2023-03-14T09:27:40;5.32;;;1.65;;
76296;SDS011;65104;52.994;6.552;2023-03-14T09:30:05;6.68;;;1.30;;
76296;SDS011;65104;52.994;6.552;2023-03-14T09:32:31;4.85;;;1.23;;
76296;SDS011;65104;52.994;6.552;2023-03-14T09:34:57;9.02;;;2.00;;
76296;SDS011;65104;52.994;6.552;2023-03-14T09:37:22;6.85;;;1.60;;
76296;SDS011;65104;52.994;6.552;2023-03-14T09:39:48;4.03;;;1.58;;
76296;SDS011;65104;52.994;6.552;2023-03-14T09:42:14;9.13;;;1.77;;
76296;SDS011;65104;52.994;6.552;2023-03-14T09:45:02;9.45;;;1.52;;
76296;SDS011;65104;52.994;6.552;2023-03-14T09:47:33;12.98;;;2.40;;
76296;SDS011;65104;52.994;6.552;2023-03-14T09:50:03;6.65;;;2.05;;
76296;SDS011;65104;52.994;6.552;2023-03-14T09:52:37;6.22;;;1.60;;
76296;SDS011;65104;52.994;6.552;2023-03-14T09:55:06;10.63;;;1.92;;
76296;SDS011;65104;52.994;6.552;2023-03-14T09:57:48;12.85;;;2.08;;
76296;SDS011;65104;52.994;6.552;2023-03-14T10:00:18;10.52;;;1.73;;
76296;SDS011;65104;52.994;6.552;2023-03-14T10:02:53;7.60;;;1.63;;
76296;SDS011;65104;52.994;6.552;2023-03-14T10:05:22;16.30;;;3.92;;
76296;SDS011;65104;52.994;6.552;2023-03-14T10:07:54;6.53;;;1.48;;
76296;SDS011;65104;52.994;6.552;2023-03-14T10:10:21;9.23;;;1.98;;
76296;SDS011;65104;52.994;6.552;2023-03-14T10:13:01;4.65;;;1.88;;
76296;SDS011;65104;52.994;6.552;2023-03-14T10:15:47;10.45;;;1.60;;
76296;SDS011;65104;52.994;6.552;2023-03-14T10:18:16;8.30;;;3.00;;
76296;SDS011;65104;52.994;6.552;2023-03-14T10:21:01;4.38;;;1.45;;
76296;SDS011;65104;52.994;6.552;2023-03-14T10:23:30;5.55;;;1.38;;
76296;SDS011;65104;52.994;6.552;2023-03-14T10:26:03;7.28;;;1.90;;
76296;SDS011;65104;52.994;6.552;2023-03-14T10:31:10;9.00;;;1.38;;
76296;SDS011;65104;52.994;6.552;2023-03-14T10:33:37;12.40;;;1.92;;
76296;SDS011;65104;52.994;6.552;2023-03-14T10:36:05;8.23;;;1.73;;
76296;SDS011;65104;52.994;6.552;2023-03-14T10:42:02;6.20;;;1.45;;
76296;SDS011;65104;52.994;6.552;2023-03-14T10:44:30;13.07;;;2.13;;
76296;SDS011;65104;52.994;6.552;2023-03-14T10:47:02;10.07;;;1.70;;
76296;SDS011;65104;52.994;6.552;2023-03-14T10:49:30;7.15;;;1.58;;
76296;SDS011;65104;52.994;6.552;2023-03-14T10:52:19;6.53;;;1.38;;
76296;SDS011;65104;52.994;6.552;2023-03-14T10:55:01;8.68;;;2.17;;
76296;SDS011;65104;52.994;6.552;2023-03-14T10:57:29;4.90;;;1.27;;
76296;SDS011;65104;52.994;6.552;2023-03-14T10:59:55;6.55;;;2.05;;
76296;SDS011;65104;52.994;6.552;2023-03-14T11:08:19;6.72;;;1.50;;
76296;SDS011;65104;52.994;6.552;2023-03-14T11:10:54;3.22;;;1.23;;
76296;SDS011;65104;52.994;6.552;2023-03-14T11:13:39;2.70;;;2.45;;
76296;SDS011;65104;52.994;6.552;2023-03-14T11:27:43;6.53;;;1.15;;
76296;SDS011;65104;52.994;6.552;2023-03-14T11:33:26;7.80;;;1.33;;
76296;SDS011;65104;52.994;6.552;2023-03-14T11:38:52;3.53;;;0.77;;
76296;SDS011;65104;52.994;6.552;2023-03-14T11:41:23;7.30;;;1.20;;
76296;SDS011;65104;52.994;6.552;2023-03-14T11:47:13;3.13;;;0.75;;
76296;SDS011;65104;52.994;6.552;2023-03-14T11:49:45;3.78;;;0.80;;
76296;SDS011;65104;52.994;6.552;2023-03-14T11:58:01;4.25;;;0.80;;
76296;SDS011;65104;52.994;6.552;2023-03-14T12:00:51;4.07;;;1.00;;
76296;SDS011;65104;52.994;6.552;2023-03-14T12:09:16;2.00;;;0.50;;
76296;SDS011;65104;52.994;6.552;2023-03-14T12:11:47;2.35;;;0.80;;
76296;SDS011;65104;52.994;6.552;2023-03-14T12:14:18;6.63;;;1.00;;
76296;SDS011;65104;52.994;6.552;2023-03-14T12:17:21;4.13;;;0.88;;
76296;SDS011;65104;52.994;6.552;2023-03-14T12:20:11;3.70;;;1.00;;
76296;SDS011;65104;52.994;6.552;2023-03-14T12:25:23;4.30;;;1.05;;
76296;SDS011;65104;52.994;6.552;2023-03-14T12:30:27;2.85;;;0.93;;
76296;SDS011;65104;52.994;6.552;2023-03-14T12:35:42;6.13;;;1.33;;
76296;SDS011;65104;52.994;6.552;2023-03-14T12:38:09;3.53;;;1.00;;
76296;SDS011;65104;52.994;6.552;2023-03-14T12:43:40;2.92;;;1.00;;
76296;SDS011;65104;52.994;6.552;2023-03-14T12:48:37;1.75;;;0.57;;
76296;SDS011;65104;52.994;6.552;2023-03-14T12:51:05;3.70;;;0.70;;
76296;SDS011;65104;52.994;6.552;2023-03-14T13:04:33;1.70;;;0.40;;
76296;SDS011;65104;52.994;6.552;2023-03-14T13:07:29;1.73;;;0.30;;
76296;SDS011;65104;52.994;6.552;2023-03-14T13:12:41;3.50;;;0.82;;
76296;SDS011;65104;52.994;6.552;2023-03-14T13:20:56;1.55;;;0.93;;
76296;SDS011;65104;52.994;6.552;2023-03-14T13:23:28;3.05;;;0.80;;
76296;SDS011;65104;52.994;6.552;2023-03-14T13:25:56;4.07;;;0.90;;
76296;SDS011;65104;52.994;6.552;2023-03-14T13:28:24;3.17;;;0.85;;
76296;SDS011;65104;52.994;6.552;2023-03-14T13:30:54;3.50;;;0.90;;
76296;SDS011;65104;52.994;6.552;2023-03-14T13:33:23;2.63;;;0.80;;
76296;SDS011;65104;52.994;6.552;2023-03-14T13:35:54;2.03;;;0.60;;
76296;SDS011;65104;52.994;6.552;2023-03-14T13:38:23;2.10;;;0.70;;
76296;SDS011;65104;52.994;6.552;2023-03-14T13:40:51;3.75;;;0.77;;
76296;SDS011;65104;52.994;6.552;2023-03-14T13:43:30;3.30;;;1.05;;
76296;SDS011;65104;52.994;6.552;2023-03-14T13:48:46;4.53;;;0.85;;
76296;SDS011;65104;52.994;6.552;2023-03-14T13:51:15;1.75;;;0.70;;
76296;SDS011;65104;52.994;6.552;2023-03-14T13:53:46;1.60;;;0.57;;
76296;SDS011;65104;52.994;6.552;2023-03-14T13:56:15;3.47;;;0.88;;
76296;SDS011;65104;52.994;6.552;2023-03-14T13:58:42;2.42;;;0.60;;
76296;SDS011;65104;52.994;6.552;2023-03-14T14:01:28;1.85;;;0.85;;
76296;SDS011;65104;52.994;6.552;2023-03-14T14:04:09;2.60;;;0.70;;
76296;SDS011;65104;52.994;6.552;2023-03-14T14:06:59;3.08;;;0.90;;
76296;SDS011;65104;52.994;6.552;2023-03-14T14:11:58;4.70;;;0.80;;
76296;SDS011;65104;52.994;6.552;2023-03-14T14:14:29;6.32;;;1.00;;
76296;SDS011;65104;52.994;6.552;2023-03-14T14:16:57;6.38;;;1.13;;
76296;SDS011;65104;52.994;6.552;2023-03-14T14:19:26;6.05;;;0.70;;
76296;SDS011;65104;52.994;6.552;2023-03-14T14:21:55;5.45;;;1.05;;
76296;SDS011;65104;52.994;6.552;2023-03-14T14:24:23;3.80;;;0.95;;
76296;SDS011;65104;52.994;6.552;2023-03-14T14:26:54;3.42;;;0.40;;
76296;SDS011;65104;52.994;6.552;2023-03-14T14:29:27;3.45;;;0.75;;
76296;SDS011;65104;52.994;6.552;2023-03-14T14:32:11;5.35;;;1.02;;
76296;SDS011;65104;52.994;6.552;2023-03-14T14:37:30;3.35;;;1.00;;
76296;SDS011;65104;52.994;6.552;2023-03-14T14:42:38;3.63;;;0.77;;
76296;SDS011;65104;52.994;6.552;2023-03-14T14:45:09;4.28;;;0.70;;
76296;SDS011;65104;52.994;6.552;2023-03-14T14:47:48;2.35;;;0.88;;
76296;SDS011;65104;52.994;6.552;2023-03-14T14:50:33;4.28;;;1.20;;
76296;SDS011;65104;52.994;6.552;2023-03-14T14:53:18;8.32;;;0.85;;
76296;SDS011;65104;52.994;6.552;2023-03-14T14:55:52;5.93;;;1.02;;
76296;SDS011;65104;52.994;6.552;2023-03-14T14:58:27;2.28;;;0.90;;
76296;SDS011;65104;52.994;6.552;2023-03-14T15:03:45;2.75;;;0.82;;
76296;SDS011;65104;52.994;6.552;2023-03-14T15:06:14;9.10;;;1.33;;
76296;SDS011;65104;52.994;6.552;2023-03-14T15:11:21;2.60;;;0.57;;
76296;SDS011;65104;52.994;6.552;2023-03-14T15:13:50;5.75;;;1.52;;
76296;SDS011;65104;52.994;6.552;2023-03-14T15:16:20;2.95;;;1.13;;
76296;SDS011;65104;52.994;6.552;2023-03-14T15:18:49;3.08;;;0.70;;
76296;SDS011;65104;52.994;6.552;2023-03-14T15:21:20;2.20;;;0.50;;
76296;SDS011;65104;52.994;6.552;2023-03-14T15:23:46;1.00;;;0.43;;
76296;SDS011;65104;52.994;6.552;2023-03-14T15:26:13;2.92;;;0.57;;
76296;SDS011;65104;52.994;6.552;2023-03-14T15:28:42;3.65;;;0.82;;
76296;SDS011;65104;52.994;6.552;2023-03-14T15:31:09;4.18;;;0.82;;
76296;SDS011;65104;52.994;6.552;2023-03-14T15:33:36;3.70;;;1.08;;
76296;SDS011;65104;52.994;6.552;2023-03-14T15:36:03;4.95;;;0.90;;
76296;SDS011;65104;52.994;6.552;2023-03-14T15:38:30;10.93;;;1.27;;
76296;SDS011;65104;52.994;6.552;2023-03-14T15:40:56;2.53;;;1.35;;
76296;SDS011;65104;52.994;6.552;2023-03-14T15:43:22;2.90;;;1.00;;
76296;SDS011;65104;52.994;6.552;2023-03-14T15:45:47;5.93;;;1.23;;
76296;SDS011;65104;52.994;6.552;2023-03-14T15:48:16;4.35;;;1.33;;
76296;SDS011;65104;52.994;6.552;2023-03-14T15:50:43;3.60;;;1.02;;
76296;SDS011;65104;52.994;6.552;2023-03-14T15:53:10;1.42;;;0.57;;
76296;SDS011;65104;52.994;6.552;2023-03-14T15:55:37;6.45;;;1.52;;
76296;SDS011;65104;52.994;6.552;2023-03-14T15:58:03;1.70;;;0.80;;
76296;SDS011;65104;52.994;6.552;2023-03-14T16:00:29;2.65;;;0.68;;
76296;SDS011;65104;52.994;6.552;2023-03-14T16:02:55;2.10;;;0.63;;
76296;SDS011;65104;52.994;6.552;2023-03-14T16:05:21;1.35;;;0.90;;
76296;SDS011;65104;52.994;6.552;2023-03-14T16:07:47;2.28;;;1.00;;
76296;SDS011;65104;52.994;6.552;2023-03-14T16:10:14;5.78;;;1.52;;
76296;SDS011;65104;52.994;6.552;2023-03-14T16:12:41;1.15;;;0.68;;
76296;SDS011;65104;52.994;6.552;2023-03-14T16:15:07;3.75;;;0.80;;
76296;SDS011;65104;52.994;6.552;2023-03-14T16:17:34;4.63;;;1.08;;
76296;SDS011;65104;52.994;6.552;2023-03-14T16:20:01;3.60;;;1.30;;
76296;SDS011;65104;52.994;6.552;2023-03-14T16:22:29;2.88;;;0.80;;
76296;SDS011;65104;52.994;6.552;2023-03-14T16:24:59;2.63;;;0.80;;
76296;SDS011;65104;52.994;6.552;2023-03-14T16:27:25;2.40;;;1.17;;
76296;SDS011;65104;52.994;6.552;2023-03-14T16:29:51;4.38;;;0.98;;
76296;SDS011;65104;52.994;6.552;2023-03-14T16:32:18;1.92;;;0.85;;
76296;SDS011;65104;52.994;6.552;2023-03-14T16:34:44;2.38;;;0.68;;
76296;SDS011;65104;52.994;6.552;2023-03-14T16:37:10;1.63;;;0.77;;
76296;SDS011;65104;52.994;6.552;2023-03-14T16:39:36;13.73;;;5.55;;
76296;SDS011;65104;52.994;6.552;2023-03-14T16:42:02;4.07;;;2.97;;
76296;SDS011;65104;52.994;6.552;2023-03-14T16:44:28;4.10;;;1.23;;
76296;SDS011;65104;52.994;6.552;2023-03-14T16:49:23;6.38;;;3.60;;
76296;SDS011;65104;52.994;6.552;2023-03-14T16:51:48;6.05;;;3.55;;
76296;SDS011;65104;52.994;6.552;2023-03-14T16:54:14;20.48;;;16.15;;
76296;SDS011;65104;52.994;6.552;2023-03-14T16:56:39;23.75;;;15.27;;
76296;SDS011;65104;52.994;6.552;2023-03-14T16:59:05;23.20;;;12.93;;
76296;SDS011;65104;52.994;6.552;2023-03-14T17:01:32;11.60;;;4.75;;
76296;SDS011;65104;52.994;6.552;2023-03-14T17:03:58;22.15;;;14.10;;
76296;SDS011;65104;52.994;6.552;2023-03-14T17:06:25;51.45;;;23.20;;
76296;SDS011;65104;52.994;6.552;2023-03-14T17:08:52;74.55;;;32.10;;
76296;SDS011;65104;52.994;6.552;2023-03-14T17:11:20;21.50;;;9.75;;